Florence, OR

9:08 PM PDT on August 29, 2016 (GMT -0700)
Collard Lake | | Change Station

Elev 174 ft 44.04 °N, 124.08 °W | Updated 7 seconds ago

Overcast
Overcast
55.4 °F
Feels Like 55.4 °F
N
0.0
Wind Variable Wind from SSW

Today
High -- | Low -- °F
--% Chance of Precip.
Yesterday
High -- | Low -- °F
Precip. -- in
Pressure 30.11 in
Visibility 7.0 miles
Clouds Overcast 600 ft
Dew Point 55 °F
Humidity 98%
Rainfall 0.02 in
Snow Depth Not available.
6:36 AM 7:56 PM
Waning Crescent, 5% visible
METAR KONP 300355Z AUTO 19007KT 7SM OVC006 13/12 A3011 RMK AO2
Pressure 30.11 in
Visibility 7.0 miles
Clouds Overcast 600 ft
Dew Point 55 °F
Humidity 98%
Rainfall 0.02 in
Snow Depth Not available.
6:36 AM 7:56 PM
Waning Crescent, 5% visible
METAR KONP 300355Z AUTO 19007KT 7SM OVC006 13/12 A3011 RMK AO2

10-Day Weather Forecast

Almanac

Astronomy

Aug. 29, 2016 Rise Set
Actual Time
Civil Twilight
Nautical Twilight
Astronomical Twilight
Moon
Length of Visible Light
Length of Day
Tomorrow will be .
, % of the Moon is Illuminated

Today's Extremes

State Highs State Lows

Community

WunderPhotos

Upload Photos

1,935,785 photos uploaded!

WunderBlog® & News

Nearby

Air Quality

  Air Quality AQ Index Pollutant
Not available.

Snow Depth

Station Depth Elevation

Earthquake Activity

City Distance Mag. Time & Date
Minimum magnitude displayed is 2.5.

Coastal Water Temperatures

Place Temperature

Stations

Nearby Weather Stations

Station Location Temp. Windchill Dew Point Humidity Wind Precip. Elev Updated Type
                   

Watches & Warnings

There are currently no watches in effect.